createdAt,value
2023-03-22T00:02:57.210Z,10.19
2023-03-22T00:05:59.733Z,10.20
2023-03-22T00:09:01.865Z,10.24
2023-03-22T00:12:04.563Z,10.30
2023-03-22T00:15:07.611Z,10.32
2023-03-22T00:18:12.545Z,10.37
2023-03-22T00:21:16.706Z,10.26
2023-03-22T00:24:21.092Z,10.16
2023-03-22T00:27:23.273Z,10.10
2023-03-22T00:30:25.863Z,10.09
2023-03-22T00:33:30.404Z,10.01
2023-03-22T00:36:32.789Z,9.97
2023-03-22T00:39:35.213Z,9.93
2023-03-22T00:42:39.188Z,9.86
2023-03-22T00:45:41.553Z,9.63
2023-03-22T00:48:44.132Z,9.55
2023-03-22T00:51:46.488Z,9.45
2023-03-22T00:54:49.380Z,9.37
2023-03-22T00:57:51.674Z,9.40
2023-03-22T01:00:54.150Z,9.38
2023-03-22T01:03:56.493Z,9.42
2023-03-22T01:07:03.428Z,9.29
2023-03-22T01:10:06.689Z,9.23
2023-03-22T01:13:11.268Z,9.23
2023-03-22T01:16:13.493Z,9.12
2023-03-22T01:19:16.344Z,9.10
2023-03-22T01:22:18.559Z,9.12
2023-03-22T01:25:21.778Z,9.12
2023-03-22T01:28:26.862Z,8.91
2023-03-22T01:31:29.565Z,8.88
2023-03-22T01:34:31.941Z,8.88
2023-03-22T01:37:34.866Z,8.86
2023-03-22T01:40:38.524Z,8.79
2023-03-22T01:43:42.045Z,8.74
2023-03-22T01:46:46.929Z,8.80
2023-03-22T01:49:49.789Z,8.75
2023-03-22T01:52:53.381Z,8.68
2023-03-22T01:55:57.675Z,8.70
2023-03-22T01:59:01.104Z,8.72
2023-03-22T02:02:05.681Z,8.76
2023-03-22T02:05:09.005Z,8.70
2023-03-22T02:08:14.847Z,8.70
2023-03-22T02:11:30.813Z,8.74
2023-03-22T02:14:50.453Z,8.74
2023-03-22T02:18:11.268Z,8.71
2023-03-22T02:21:32.534Z,8.74
2023-03-22T02:25:07.222Z,8.66
2023-03-22T02:28:40.954Z,8.71
2023-03-22T02:31:58.725Z,8.65
2023-03-22T02:35:09.748Z,8.64
2023-03-22T02:38:15.215Z,8.66
2023-03-22T02:41:25.343Z,8.66
2023-03-22T02:44:52.154Z,8.65
2023-03-22T02:48:06.737Z,8.50
2023-03-22T02:51:19.853Z,8.26
2023-03-22T02:54:44.753Z,7.99
2023-03-22T02:57:56.869Z,7.87
2023-03-22T03:01:09.158Z,7.76
2023-03-22T03:04:18.259Z,7.73
2023-03-22T03:07:24.663Z,7.71
2023-03-22T03:10:28.474Z,7.68
2023-03-22T03:13:30.869Z,7.62
2023-03-22T03:16:37.222Z,7.62
2023-03-22T03:19:52.209Z,7.68
2023-03-22T03:23:00.099Z,7.70
2023-03-22T03:26:21.425Z,7.58
2023-03-22T03:29:36.058Z,7.58
2023-03-22T03:32:48.081Z,7.58
2023-03-22T03:35:59.864Z,7.64
2023-03-22T03:39:04.125Z,7.69
2023-03-22T03:42:12.406Z,7.73
2023-03-22T03:45:16.312Z,7.78
2023-03-22T03:48:22.300Z,7.74
2023-03-22T03:51:27.285Z,7.85
2023-03-22T03:54:29.952Z,7.65
2023-03-22T03:57:32.171Z,7.65
2023-03-22T04:00:35.564Z,7.47
2023-03-22T04:03:40.691Z,7.52
2023-03-22T04:06:43.957Z,7.57
2023-03-22T04:09:46.713Z,7.52
2023-03-22T04:12:49.214Z,7.38
2023-03-22T04:15:55.431Z,7.25
2023-03-22T04:18:58.007Z,7.23
2023-03-22T04:22:01.402Z,7.19
2023-03-22T04:25:11.663Z,7.00
2023-03-22T04:28:14.614Z,6.75
2023-03-22T04:31:18.464Z,6.94
2023-03-22T04:34:21.639Z,6.88
2023-03-22T04:37:27.482Z,6.89
2023-03-22T04:40:36.410Z,7.08
2023-03-22T04:43:39.393Z,7.02
2023-03-22T04:46:44.435Z,7.01
2023-03-22T04:49:46.720Z,7.08
2023-03-22T04:52:51.315Z,7.14
2023-03-22T04:55:57.924Z,7.02
2023-03-22T04:59:01.371Z,6.99
2023-03-22T05:02:03.927Z,7.08
2023-03-22T05:05:07.470Z,7.12
2023-03-22T05:08:09.785Z,7.14
2023-03-22T05:11:16.279Z,7.14
2023-03-22T05:14:19.870Z,7.15
2023-03-22T05:17:22.581Z,7.23
2023-03-22T05:20:25.202Z,7.15
2023-03-22T05:23:28.985Z,7.24
2023-03-22T05:26:31.606Z,7.37
2023-03-22T05:29:36.932Z,7.45
2023-03-22T05:32:43.805Z,7.47
2023-03-22T05:35:46.561Z,7.46
2023-03-22T05:38:50.650Z,7.56
2023-03-22T05:41:53.557Z,7.69
2023-03-22T05:44:56.268Z,7.74
2023-03-22T05:47:59.323Z,7.82
2023-03-22T05:51:06.078Z,7.82
2023-03-22T05:54:09.652Z,7.92
2023-03-22T05:57:13.060Z,7.98
2023-03-22T06:00:16.258Z,8.07
2023-03-22T06:03:22.382Z,8.14
2023-03-22T06:06:28.036Z,8.20
2023-03-22T06:09:31.114Z,8.31
2023-03-22T06:12:34.120Z,8.44
2023-03-22T06:15:37.417Z,8.64
2023-03-22T06:18:39.781Z,8.83
2023-03-22T06:21:43.288Z,9.00
2023-03-22T06:24:49.053Z,9.08
2023-03-22T06:27:52.324Z,9.26
2023-03-22T06:30:56.339Z,9.41
2023-03-22T06:33:59.231Z,9.57
2023-03-22T06:37:01.879Z,9.70
2023-03-22T06:40:07.369Z,9.85
2023-03-22T06:43:09.726Z,10.00
2023-03-22T06:46:14.084Z,10.10
2023-03-22T06:49:19.338Z,10.18
2023-03-22T06:52:22.150Z,10.32
2023-03-22T06:55:24.788Z,10.42
2023-03-22T06:58:27.353Z,10.50
2023-03-22T07:01:29.609Z,10.52
2023-03-22T07:04:33.105Z,10.60
2023-03-22T07:07:35.385Z,10.64
2023-03-22T07:10:39.238Z,10.77
2023-03-22T07:13:41.901Z,10.90
2023-03-22T07:16:44.781Z,11.00
2023-03-22T07:19:46.996Z,11.17
2023-03-22T07:22:50.845Z,11.19
2023-03-22T07:25:55.825Z,11.33
2023-03-22T07:28:58.761Z,11.43
2023-03-22T07:32:01.831Z,11.41
2023-03-22T07:35:05.851Z,11.55
2023-03-22T07:38:08.354Z,11.71
2023-03-22T07:41:11.652Z,11.83
2023-03-22T07:44:18.237Z,11.96
2023-03-22T07:47:37.834Z,11.90
2023-03-22T07:50:42.887Z,11.98
2023-03-22T07:53:45.362Z,12.13
2023-03-22T07:56:48.152Z,12.23
2023-03-22T07:59:50.693Z,12.32
2023-03-22T08:02:58.900Z,12.34
2023-03-22T08:06:12.838Z,12.37
2023-03-22T08:09:21.090Z,12.33
2023-03-22T08:12:29.516Z,12.40
2023-03-22T08:15:38.952Z,12.47
2023-03-22T08:19:03.700Z,12.60
2023-03-22T08:22:15.703Z,12.68
2023-03-22T08:25:26.905Z,12.66
2023-03-22T08:28:37.652Z,12.70
2023-03-22T08:31:45.234Z,12.79
2023-03-22T08:34:48.746Z,12.98
2023-03-22T08:37:57.178Z,13.10
2023-03-22T08:41:00.507Z,13.20
2023-03-22T08:44:04.615Z,13.15
2023-03-22T08:47:09.475Z,13.31
2023-03-22T08:50:13.148Z,13.27
2023-03-22T08:53:16.200Z,13.18
2023-03-22T08:56:22.639Z,13.11
2023-03-22T08:59:26.992Z,13.19
2023-03-22T09:02:30.251Z,13.25
2023-03-22T09:05:32.724Z,13.19
2023-03-22T09:08:35.338Z,13.25
2023-03-22T09:11:41.424Z,13.38
2023-03-22T09:14:46.739Z,13.44
2023-03-22T09:17:49.353Z,13.64
2023-03-22T09:20:52.775Z,13.69
2023-03-22T09:23:56.315Z,13.86
2023-03-22T09:26:59.929Z,13.94
2023-03-22T09:30:02.396Z,13.98
2023-03-22T09:33:06.517Z,14.03
2023-03-22T09:36:11.902Z,14.07
2023-03-22T09:39:16.310Z,14.15
2023-03-22T09:42:28.089Z,14.00
2023-03-22T09:45:38.661Z,13.99
2023-03-22T09:48:43.212Z,13.95
2023-03-22T09:51:48.940Z,13.82
2023-03-22T09:54:53.111Z,13.78
2023-03-22T09:58:37.046Z,13.83
2023-03-22T10:02:04.712Z,14.02
2023-03-22T10:05:50.174Z,13.92
2023-03-22T10:09:04.370Z,13.89
2023-03-22T10:12:28.221Z,13.83
2023-03-22T10:15:36.785Z,13.79
2023-03-22T10:18:45.025Z,13.86
2023-03-22T10:21:50.585Z,14.01
2023-03-22T10:24:53.890Z,13.94
2023-03-22T10:27:57.946Z,13.90
2023-03-22T10:31:02.718Z,13.86
2023-03-22T10:34:11.526Z,13.71
2023-03-22T10:37:32.145Z,13.69
2023-03-22T10:40:36.981Z,13.59
2023-03-22T10:43:42.303Z,13.60
2023-03-22T10:46:45.484Z,13.58
2023-03-22T10:49:54.641Z,13.61
2023-03-22T10:53:12.648Z,13.65
2023-03-22T10:56:18.739Z,13.65
2023-03-22T10:59:47.299Z,13.65
2023-03-22T11:02:58.392Z,13.56
2023-03-22T11:06:00.604Z,13.68
2023-03-22T11:09:22.312Z,13.68
2023-03-22T11:12:24.953Z,13.75
2023-03-22T11:15:32.880Z,13.69
2023-03-22T11:18:35.143Z,13.69
2023-03-22T11:21:37.605Z,13.65
2023-03-22T11:24:39.932Z,13.66
2023-03-22T11:27:56.458Z,13.59
2023-03-22T11:31:06.622Z,13.63
2023-03-22T11:34:17.328Z,13.63
2023-03-22T11:37:22.387Z,13.70
2023-03-22T11:40:31.509Z,13.83
2023-03-22T11:43:42.214Z,13.85
2023-03-22T11:46:58.453Z,13.89
2023-03-22T11:50:05.486Z,13.94
2023-03-22T11:53:15.070Z,14.03
2023-03-22T11:56:21.261Z,14.17
2023-03-22T11:59:29.772Z,14.33
2023-03-22T12:02:44.260Z,14.50
2023-03-22T12:05:50.177Z,14.68
2023-03-22T12:08:58.498Z,14.68
2023-03-22T12:12:03.629Z,14.71
2023-03-22T12:15:10.887Z,14.88
2023-03-22T12:18:22.915Z,15.06
2023-03-22T12:21:25.411Z,15.19
2023-03-22T12:24:32.242Z,15.30
2023-03-22T12:27:38.201Z,15.40
2023-03-22T12:30:53.863Z,15.46
2023-03-22T12:33:59.456Z,15.57
2023-03-22T12:37:05.565Z,15.51
2023-03-22T12:40:24.430Z,15.55
2023-03-22T12:43:42.592Z,15.60
2023-03-22T12:46:49.495Z,15.48
2023-03-22T12:50:12.988Z,15.66
2023-03-22T12:53:17.975Z,15.73
2023-03-22T12:56:26.324Z,15.70
2023-03-22T12:59:31.392Z,15.77
2023-03-22T13:02:36.261Z,15.94
2023-03-22T13:05:39.269Z,16.07
2023-03-22T13:09:08.801Z,16.01
2023-03-22T13:12:17.079Z,16.14
2023-03-22T13:15:41.167Z,16.29
2023-03-22T13:18:44.434Z,16.44
2023-03-22T13:21:49.189Z,16.57
2023-03-22T13:25:08.536Z,16.65
2023-03-22T13:28:26.187Z,16.79
2023-03-22T13:31:38.228Z,16.62
2023-03-22T13:34:46.937Z,16.70
2023-03-22T13:37:51.096Z,16.75
2023-03-22T13:41:02.667Z,16.86
2023-03-22T13:44:36.017Z,16.95
2023-03-22T13:47:45.389Z,16.91
2023-03-22T13:50:48.223Z,16.98
2023-03-22T13:54:00.327Z,16.94
2023-03-22T13:57:03.106Z,16.79
2023-03-22T14:00:20.710Z,16.85
2023-03-22T14:03:29.637Z,16.90
2023-03-22T14:06:36.323Z,16.84
2023-03-22T14:09:48.713Z,16.67
2023-03-22T14:13:14.451Z,16.58
2023-03-22T14:16:45.358Z,16.58
2023-03-22T14:19:49.969Z,16.55
